Time,TemperatureF,DewpointF,PressureIn,WindDirection,WindDirectionDegrees,WindSpeedMPH,WindSpeedGustMPH,Humidity,HourlyPrecipIn,Conditions,Clouds,dailyrainin,SoftwareType,DateUTC
2013-09-09 00:14:00,74.4,68.0,29.84,SSW,197,0.0,3.0,79,0.00,,,0.00,weatherlink.com 1.10,2013-09-09 05:14:00,
2013-09-09 00:29:00,73.9,67.0,29.84,SSW,197,0.0,0.0,80,0.00,,,0.00,weatherlink.com 1.10,2013-09-09 05:29:00,
2013-09-09 00:58:00,72.4,67.0,29.84,SSW,197,0.0,0.0,83,0.00,,,0.00,weatherlink.com 1.10,2013-09-09 05:58:00,
2013-09-09 01:13:00,71.9,67.0,29.84,SSW,197,0.0,0.0,84,0.00,,,0.00,weatherlink.com 1.10,2013-09-09 06:13:00,
2013-09-09 01:28:00,71.6,67.0,29.84,SSW,197,0.0,3.0,85,0.00,,,0.00,weatherlink.com 1.10,2013-09-09 06:28:00,
2013-09-09 01:43:00,72.1,67.0,29.84,SSW,197,0.0,2.0,85,0.00,,,0.00,weatherlink.com 1.10,2013-09-09 06:43:00,
2013-09-09 01:58:00,72.2,67.0,29.84,SSW,197,0.0,0.0,84,0.00,,,0.00,weatherlink.com 1.10,2013-09-09 06:58:00,
2013-09-09 02:13:00,71.6,67.0,29.84,SSW,197,0.0,0.0,85,0.00,,,0.00,weatherlink.com 1.10,2013-09-09 07:13:00,
2013-09-09 02:44:00,70.3,67.0,29.84,SSW,197,0.0,0.0,88,0.00,,,0.00,weatherlink.com 1.10,2013-09-09 07:44:00,
2013-09-09 02:59:00,70.2,67.0,29.84,SSW,197,0.0,0.0,88,0.00,,,0.00,weatherlink.com 1.10,2013-09-09 07:59:00,
2013-09-09 03:14:00,69.9,66.0,29.84,SSW,197,0.0,0.0,88,0.00,,,0.00,weatherlink.com 1.10,2013-09-09 08:14:00,
2013-09-09 03:29:00,69.5,66.0,29.84,SSW,197,0.0,0.0,89,0.00,,,0.00,weatherlink.com 1.10,2013-09-09 08:29:00,
2013-09-09 03:44:00,69.4,66.0,29.84,SSW,197,0.0,0.0,89,0.00,,,0.00,weatherlink.com 1.10,2013-09-09 08:44:00,
2013-09-09 03:59:00,69.1,66.0,29.84,SSW,197,0.0,0.0,89,0.00,,,0.00,weatherlink.com 1.10,2013-09-09 08:59:00,
2013-09-09 04:14:00,69.0,66.0,29.84,SSW,197,0.0,0.0,90,0.00,,,0.00,weatherlink.com 1.10,2013-09-09 09:14:00,
2013-09-09 04:29:00,69.0,66.0,29.85,SSW,197,0.0,0.0,91,0.00,,,0.00,weatherlink.com 1.10,2013-09-09 09:29:00,
2013-09-09 04:44:00,69.0,66.0,29.85,SSW,197,0.0,0.0,91,0.00,,,0.00,weatherlink.com 1.10,2013-09-09 09:44:00,
2013-09-09 04:59:00,69.0,66.0,29.85,SSW,197,0.0,0.0,91,0.00,,,0.00,weatherlink.com 1.10,2013-09-09 09:59:00,
2013-09-09 05:14:00,69.0,67.0,29.85,SSW,197,0.0,0.0,92,0.00,,,0.00,weatherlink.com 1.10,2013-09-09 10:14:00,
2013-09-09 05:44:00,68.2,66.0,29.85,SSW,197,0.0,0.0,91,0.00,,,0.00,weatherlink.com 1.10,2013-09-09 10:44:00,
2013-09-09 05:59:00,67.9,66.0,29.85,SSW,197,0.0,0.0,92,0.00,,,0.00,weatherlink.com 1.10,2013-09-09 10:59:00,
2013-09-09 06:14:00,67.6,65.0,29.85,SSW,197,0.0,0.0,92,0.00,,,0.00,weatherlink.com 1.10,2013-09-09 11:14:00,
2013-09-09 06:30:00,67.8,66.0,29.85,SSW,197,0.0,1.0,93,0.00,,,0.00,weatherlink.com 1.10,2013-09-09 11:30:00,
2013-09-09 06:44:00,68.0,66.0,29.86,SSW,197,0.0,1.0,93,0.00,,,0.00,weatherlink.com 1.10,2013-09-09 11:44:00,
2013-09-09 07:15:00,67.3,65.0,29.86,SSW,197,0.0,0.0,93,0.00,,,0.00,weatherlink.com 1.10,2013-09-09 12:15:00,
2013-09-09 07:30:00,67.1,65.0,29.87,SSW,197,0.0,0.0,93,0.00,,,0.00,weatherlink.com 1.10,2013-09-09 12:30:00,
2013-09-09 07:45:00,67.6,66.0,29.87,SSW,197,0.0,0.0,94,0.00,,,0.00,weatherlink.com 1.10,2013-09-09 12:45:00,
2013-09-09 07:59:00,69.0,68.0,29.87,NW,325,0.0,2.0,95,0.00,,,0.00,weatherlink.com 1.10,2013-09-09 12:59:00,
2013-09-09 08:14:00,70.4,68.0,29.88,NNW,328,0.0,2.0,93,0.00,,,0.00,weatherlink.com 1.10,2013-09-09 13:14:00,
2013-09-09 08:29:00,72.1,69.0,29.88,NNW,329,0.0,2.0,89,0.00,,,0.00,weatherlink.com 1.10,2013-09-09 13:29:00,
2013-09-09 08:44:00,72.5,69.0,29.89,NNW,329,0.0,2.0,88,0.00,,,0.00,weatherlink.com 1.10,2013-09-09 13:44:00,
2013-09-09 09:00:00,74.0,70.0,29.89,SE,134,1.0,5.0,86,0.00,,,0.00,weatherlink.com 1.10,2013-09-09 14:00:00,
2013-09-09 09:15:00,74.7,70.0,29.90,South,173,3.0,8.0,84,0.00,,,0.00,weatherlink.com 1.10,2013-09-09 14:15:00,
2013-09-09 09:45:00,77.3,70.0,29.90,South,187,7.0,9.0,77,0.00,,,0.00,weatherlink.com 1.10,2013-09-09 14:45:00,
2013-09-09 10:00:00,78.5,69.0,29.90,SSE,165,4.0,12.0,72,0.00,,,0.00,weatherlink.com 1.10,2013-09-09 15:00:00,
2013-09-09 10:15:00,79.1,69.0,29.90,SSE,167,5.0,11.0,70,0.00,,,0.00,weatherlink.com 1.10,2013-09-09 15:15:00,
2013-09-09 10:46:00,80.7,69.0,29.90,SSE,167,1.0,11.0,67,0.00,,,0.00,weatherlink.com 1.10,2013-09-09 15:46:00,
2013-09-09 11:01:00,79.8,68.0,29.90,SSE,164,6.0,8.0,68,0.00,,,0.00,weatherlink.com 1.10,2013-09-09 16:01:00,
2013-09-09 11:15:00,81.9,69.0,29.90,South,169,5.0,10.0,64,0.00,,,0.00,weatherlink.com 1.10,2013-09-09 16:15:00,
2013-09-09 11:30:00,82.4,68.0,29.89,South,188,2.0,9.0,62,0.00,,,0.00,weatherlink.com 1.10,2013-09-09 16:30:00,
2013-09-09 11:45:00,82.7,68.0,29.89,SSE,153,3.0,13.0,61,0.00,,,0.00,weatherlink.com 1.10,2013-09-09 16:45:00,
2013-09-09 12:00:00,83.6,68.0,29.89,SSE,157,9.0,9.0,59,0.00,,,0.00,weatherlink.com 1.10,2013-09-09 17:00:00,
2013-09-09 12:16:00,84.3,68.0,29.89,South,175,4.0,11.0,59,0.00,,,0.00,weatherlink.com 1.10,2013-09-09 17:16:00,
2013-09-09 12:31:00,85.4,68.0,29.88,SSE,160,0.0,9.0,57,0.00,,,0.00,weatherlink.com 1.10,2013-09-09 17:31:00,
2013-09-09 12:45:00,86.3,68.0,29.88,SSE,159,3.0,10.0,54,0.00,,,0.00,weatherlink.com 1.10,2013-09-09 17:45:00,
2013-09-09 13:00:00,86.1,68.0,29.88,SSW,206,10.0,11.0,55,0.00,,,0.00,weatherlink.com 1.10,2013-09-09 18:00:00,
2013-09-09 13:15:00,85.9,67.0,29.88,South,171,3.0,12.0,54,0.00,,,0.00,weatherlink.com 1.10,2013-09-09 18:15:00,
2013-09-09 13:31:00,87.3,66.0,29.87,South,171,8.0,12.0,50,0.00,,,0.00,weatherlink.com 1.10,2013-09-09 18:31:00,
2013-09-09 13:46:00,87.6,66.0,29.86,South,169,6.0,11.0,49,0.00,,,0.00,weatherlink.com 1.10,2013-09-09 18:46:00,
2013-09-09 14:01:00,88.0,65.0,29.85,South,184,7.0,13.0,47,0.00,,,0.00,weatherlink.com 1.10,2013-09-09 19:01:00,
2013-09-09 14:15:00,88.8,65.0,29.84,SSW,192,9.0,16.0,46,0.00,,,0.00,weatherlink.com 1.10,2013-09-09 19:15:00,
2013-09-09 14:31:00,89.0,66.0,29.84,SE,142,2.0,12.0,47,0.00,,,0.00,weatherlink.com 1.10,2013-09-09 19:31:00,
2013-09-09 14:46:00,89.7,66.0,29.83,SSE,150,5.0,10.0,45,0.00,,,0.00,weatherlink.com 1.10,2013-09-09 19:46:00,
2013-09-09 15:01:00,90.2,66.0,29.82,SSW,195,6.0,12.0,45,0.00,,,0.00,weatherlink.com 1.10,2013-09-09 20:01:00,
2013-09-09 15:31:00,91.0,66.0,29.80,SSE,159,6.0,10.0,43,0.00,,,0.00,weatherlink.com 1.10,2013-09-09 20:31:00,
2013-09-09 15:46:00,89.7,65.0,29.80,South,182,6.0,15.0,44,0.00,,,0.00,weatherlink.com 1.10,2013-09-09 20:46:00,
2013-09-09 16:01:00,89.8,66.0,29.80,SSE,152,3.0,12.0,45,0.00,,,0.00,weatherlink.com 1.10,2013-09-09 21:01:00,
2013-09-09 16:16:00,91.8,66.0,29.80,East,96,0.0,11.0,43,0.00,,,0.00,weatherlink.com 1.10,2013-09-09 21:16:00,
2013-09-09 16:31:00,92.4,66.0,29.79,East,86,11.0,11.0,42,0.00,,,0.00,weatherlink.com 1.10,2013-09-09 21:31:00,
2013-09-09 16:46:00,92.5,66.0,29.78,SSE,164,3.0,11.0,42,0.00,,,0.00,weatherlink.com 1.10,2013-09-09 21:46:00,
2013-09-09 17:01:00,92.1,67.0,29.78,ESE,112,4.0,12.0,43,0.00,,,0.00,weatherlink.com 1.10,2013-09-09 22:01:00,
2013-09-09 17:16:00,92.1,66.0,29.78,SE,137,1.0,11.0,42,0.00,,,0.00,weatherlink.com 1.10,2013-09-09 22:16:00,
2013-09-09 17:31:00,91.9,64.0,29.78,SSE,159,5.0,13.0,40,0.00,,,0.00,weatherlink.com 1.10,2013-09-09 22:31:00,
2013-09-09 17:46:00,90.3,67.0,29.79,SSE,153,9.0,18.0,46,0.00,,,0.00,weatherlink.com 1.10,2013-09-09 22:46:00,
2013-09-09 18:01:00,88.8,66.0,29.79,South,173,7.0,18.0,47,0.00,,,0.00,weatherlink.com 1.10,2013-09-09 23:01:00,
2013-09-09 18:16:00,87.1,66.0,29.80,SSE,159,5.0,15.0,49,0.00,,,0.00,weatherlink.com 1.10,2013-09-09 23:16:00,
2013-09-09 18:32:00,86.5,66.0,29.80,South,169,10.0,15.0,50,0.00,,,0.00,weatherlink.com 1.10,2013-09-09 23:32:00,
2013-09-09 18:47:00,82.5,67.0,29.81,SSE,159,18.0,23.0,60,0.00,,,0.00,weatherlink.com 1.10,2013-09-09 23:47:00,
2013-09-09 19:02:00,81.4,68.0,29.81,SSE,165,11.0,21.0,63,0.00,,,0.00,weatherlink.com 1.10,2013-09-10 00:02:00,
2013-09-09 19:17:00,80.5,69.0,29.81,South,169,8.0,15.0,68,0.00,,,0.00,weatherlink.com 1.10,2013-09-10 00:17:00,
2013-09-09 19:32:00,80.0,69.0,29.82,SSE,152,8.0,13.0,68,0.00,,,0.00,weatherlink.com 1.10,2013-09-10 00:32:00,
2013-09-09 19:47:00,79.3,68.0,29.82,SSE,153,9.0,13.0,68,0.00,,,0.00,weatherlink.com 1.10,2013-09-10 00:47:00,
2013-09-09 20:02:00,78.6,68.0,29.82,SSE,166,5.0,16.0,70,0.00,,,0.00,weatherlink.com 1.10,2013-09-10 01:02:00,
2013-09-09 20:17:00,78.0,68.0,29.83,SSE,150,7.0,15.0,72,0.00,,,0.00,weatherlink.com 1.10,2013-09-10 01:17:00,
2013-09-09 20:32:00,77.8,69.0,29.84,SSE,160,3.0,13.0,73,0.00,,,0.00,weatherlink.com 1.10,2013-09-10 01:32:00,
2013-09-09 20:47:00,77.5,69.0,29.84,SSE,153,5.0,12.0,75,0.00,,,0.00,weatherlink.com 1.10,2013-09-10 01:47:00,
2013-09-09 21:02:00,77.1,69.0,29.85,SSE,163,3.0,10.0,76,0.00,,,0.00,weatherlink.com 1.10,2013-09-10 02:02:00,
2013-09-09 21:17:00,76.7,69.0,29.86,SSE,152,6.0,9.0,77,0.00,,,0.00,weatherlink.com 1.10,2013-09-10 02:17:00,
2013-09-09 21:32:00,76.4,69.0,29.86,SE,144,1.0,7.0,78,0.00,,,0.00,weatherlink.com 1.10,2013-09-10 02:32:00,
2013-09-09 21:47:00,75.9,69.0,29.87,SE,144,0.0,3.0,79,0.00,,,0.00,weatherlink.com 1.10,2013-09-10 02:47:00,
2013-09-09 22:02:00,75.4,69.0,29.87,SE,144,0.0,1.0,80,0.00,,,0.00,weatherlink.com 1.10,2013-09-10 03:02:00,
2013-09-09 22:17:00,74.9,69.0,29.87,SE,144,0.0,1.0,81,0.00,,,0.00,weatherlink.com 1.10,2013-09-10 03:17:00,
2013-09-09 22:32:00,74.4,69.0,29.87,SE,144,0.0,0.0,82,0.00,,,0.00,weatherlink.com 1.10,2013-09-10 03:32:00,
2013-09-09 22:47:00,73.9,69.0,29.88,SE,144,0.0,0.0,83,0.00,,,0.00,weatherlink.com 1.10,2013-09-10 03:47:00,
2013-09-09 23:02:00,73.5,68.0,29.88,SE,144,2.0,4.0,84,0.00,,,0.00,weatherlink.com 1.10,2013-09-10 04:02:00,
2013-09-09 23:17:00,73.9,69.0,29.88,SE,144,3.0,5.0,83,0.00,,,0.00,weatherlink.com 1.10,2013-09-10 04:17:00,
2013-09-09 23:32:00,74.0,68.0,29.88,SE,144,2.0,5.0,81,0.00,,,0.00,weatherlink.com 1.10,2013-09-10 04:32:00,
2013-09-09 23:47:00,74.0,68.0,29.88,SE,144,0.0,5.0,81,0.00,,,0.00,weatherlink.com 1.10,2013-09-10 04:47:00,